sensor_id;sensor_type;location;lat;lon;timestamp;temperature;humidity
44427;DHT22;30133;47.866;-4.222;2022-09-17T00:01:17;23.60;50.90
44427;DHT22;30133;47.866;-4.222;2022-09-17T00:03:53;23.60;50.90
44427;DHT22;30133;47.866;-4.222;2022-09-17T00:06:23;23.60;50.80
44427;DHT22;30133;47.866;-4.222;2022-09-17T00:08:50;23.60;50.90
44427;DHT22;30133;47.866;-4.222;2022-09-17T00:11:22;23.60;50.90
44427;DHT22;30133;47.866;-4.222;2022-09-17T00:13:51;23.60;50.90
44427;DHT22;30133;47.866;-4.222;2022-09-17T00:16:24;23.50;50.90
44427;DHT22;30133;47.866;-4.222;2022-09-17T00:18:55;23.60;50.90
44427;DHT22;30133;47.866;-4.222;2022-09-17T00:21:22;23.50;50.90
44427;DHT22;30133;47.866;-4.222;2022-09-17T00:23:57;23.50;50.90
44427;DHT22;30133;47.866;-4.222;2022-09-17T00:26:25;23.50;50.90
44427;DHT22;30133;47.866;-4.222;2022-09-17T00:28:52;23.50;51.00
44427;DHT22;30133;47.866;-4.222;2022-09-17T00:31:20;23.50;50.90
44427;DHT22;30133;47.866;-4.222;2022-09-17T00:33:47;23.50;50.90
44427;DHT22;30133;47.866;-4.222;2022-09-17T00:36:13;23.50;50.90
44427;DHT22;30133;47.866;-4.222;2022-09-17T00:38:39;23.50;50.90
44427;DHT22;30133;47.866;-4.222;2022-09-17T00:41:06;23.50;51.00
44427;DHT22;30133;47.866;-4.222;2022-09-17T00:43:44;23.40;50.90
44427;DHT22;30133;47.866;-4.222;2022-09-17T00:46:28;23.40;50.90
44427;DHT22;30133;47.866;-4.222;2022-09-17T00:49:05;23.40;50.90
44427;DHT22;30133;47.866;-4.222;2022-09-17T00:51:39;23.40;50.90
44427;DHT22;30133;47.866;-4.222;2022-09-17T00:54:09;23.40;51.00
44427;DHT22;30133;47.866;-4.222;2022-09-17T00:56:38;23.40;51.00
44427;DHT22;30133;47.866;-4.222;2022-09-17T00:59:05;23.30;51.10
44427;DHT22;30133;47.866;-4.222;2022-09-17T01:01:32;23.40;51.10
44427;DHT22;30133;47.866;-4.222;2022-09-17T01:03:58;23.30;51.00
44427;DHT22;30133;47.866;-4.222;2022-09-17T01:06:37;23.40;51.00
44427;DHT22;30133;47.866;-4.222;2022-09-17T01:12:07;23.40;51.00
44427;DHT22;30133;47.866;-4.222;2022-09-17T01:14:46;23.30;51.00
44427;DHT22;30133;47.866;-4.222;2022-09-17T01:32:38;23.30;51.10
44427;DHT22;30133;47.866;-4.222;2022-09-17T01:40:48;23.20;51.10
44427;DHT22;30133;47.866;-4.222;2022-09-17T01:43:31;23.20;51.00
44427;DHT22;30133;47.866;-4.222;2022-09-17T01:46:19;23.20;51.10
44427;DHT22;30133;47.866;-4.222;2022-09-17T01:49:06;23.20;51.10
44427;DHT22;30133;47.866;-4.222;2022-09-17T01:51:39;23.20;51.10
44427;DHT22;30133;47.866;-4.222;2022-09-17T01:54:30;23.20;51.10
44427;DHT22;30133;47.866;-4.222;2022-09-17T01:57:27;23.20;51.10
44427;DHT22;30133;47.866;-4.222;2022-09-17T02:00:08;23.20;51.10
44427;DHT22;30133;47.866;-4.222;2022-09-17T02:05:54;23.20;51.10
44427;DHT22;30133;47.866;-4.222;2022-09-17T02:08:29;23.20;51.20
44427;DHT22;30133;47.866;-4.222;2022-09-17T02:11:08;23.20;51.10
44427;DHT22;30133;47.866;-4.222;2022-09-17T02:14:09;23.10;51.10
44427;DHT22;30133;47.866;-4.222;2022-09-17T02:16:34;23.20;51.20
44427;DHT22;30133;47.866;-4.222;2022-09-17T02:19:11;23.10;51.10
44427;DHT22;30133;47.866;-4.222;2022-09-17T02:24:26;23.10;51.10
44427;DHT22;30133;47.866;-4.222;2022-09-17T02:29:54;23.10;51.10
44427;DHT22;30133;47.866;-4.222;2022-09-17T02:32:20;23.10;51.20
44427;DHT22;30133;47.866;-4.222;2022-09-17T02:34:45;23.10;51.10
44427;DHT22;30133;47.866;-4.222;2022-09-17T02:37:12;23.10;51.10
44427;DHT22;30133;47.866;-4.222;2022-09-17T02:39:39;23.10;51.10
44427;DHT22;30133;47.866;-4.222;2022-09-17T02:51:22;23.10;51.20
44427;DHT22;30133;47.866;-4.222;2022-09-17T03:02:44;23.00;51.20
44427;DHT22;30133;47.866;-4.222;2022-09-17T03:05:16;23.00;51.20
44427;DHT22;30133;47.866;-4.222;2022-09-17T03:07:43;23.00;51.20
44427;DHT22;30133;47.866;-4.222;2022-09-17T03:10:10;23.00;51.10
44427;DHT22;30133;47.866;-4.222;2022-09-17T03:12:37;23.00;51.10
44427;DHT22;30133;47.866;-4.222;2022-09-17T03:15:04;23.00;51.10
44427;DHT22;30133;47.866;-4.222;2022-09-17T03:17:31;23.00;51.10
44427;DHT22;30133;47.866;-4.222;2022-09-17T03:19:57;23.00;51.10
44427;DHT22;30133;47.866;-4.222;2022-09-17T03:22:23;23.00;51.10
44427;DHT22;30133;47.866;-4.222;2022-09-17T03:24:49;23.00;51.10
44427;DHT22;30133;47.866;-4.222;2022-09-17T03:27:15;22.90;51.10
44427;DHT22;30133;47.866;-4.222;2022-09-17T03:29:40;22.90;51.00
44427;DHT22;30133;47.866;-4.222;2022-09-17T03:32:06;22.90;51.00
44427;DHT22;30133;47.866;-4.222;2022-09-17T03:34:33;22.90;51.00
44427;DHT22;30133;47.866;-4.222;2022-09-17T03:37:00;22.90;51.00
44427;DHT22;30133;47.866;-4.222;2022-09-17T03:39:28;22.90;51.00
44427;DHT22;30133;47.866;-4.222;2022-09-17T03:41:54;23.00;51.10
44427;DHT22;30133;47.866;-4.222;2022-09-17T03:44:20;22.90;51.10
44427;DHT22;30133;47.866;-4.222;2022-09-17T03:46:48;22.90;51.10
44427;DHT22;30133;47.866;-4.222;2022-09-17T03:49:15;22.90;51.10
44427;DHT22;30133;47.866;-4.222;2022-09-17T03:51:41;22.90;51.10
44427;DHT22;30133;47.866;-4.222;2022-09-17T03:54:07;22.90;51.10
44427;DHT22;30133;47.866;-4.222;2022-09-17T03:56:33;22.90;51.10
44427;DHT22;30133;47.866;-4.222;2022-09-17T03:59:00;22.90;51.10
44427;DHT22;30133;47.866;-4.222;2022-09-17T04:01:27;22.90;51.10
44427;DHT22;30133;47.866;-4.222;2022-09-17T04:03:54;22.90;51.10
44427;DHT22;30133;47.866;-4.222;2022-09-17T04:06:20;22.90;51.10
44427;DHT22;30133;47.866;-4.222;2022-09-17T04:08:47;22.90;51.10
44427;DHT22;30133;47.866;-4.222;2022-09-17T04:11:13;22.90;51.00
44427;DHT22;30133;47.866;-4.222;2022-09-17T04:13:39;22.80;51.00
44427;DHT22;30133;47.866;-4.222;2022-09-17T04:16:05;22.80;51.00
44427;DHT22;30133;47.866;-4.222;2022-09-17T04:18:31;22.80;51.00
44427;DHT22;30133;47.866;-4.222;2022-09-17T04:20:57;22.80;51.00
44427;DHT22;30133;47.866;-4.222;2022-09-17T04:23:23;22.80;51.00
44427;DHT22;30133;47.866;-4.222;2022-09-17T04:25:49;22.80;51.10
44427;DHT22;30133;47.866;-4.222;2022-09-17T04:28:15;22.80;51.00
44427;DHT22;30133;47.866;-4.222;2022-09-17T04:30:41;22.80;51.00
44427;DHT22;30133;47.866;-4.222;2022-09-17T04:33:08;22.80;51.00
44427;DHT22;30133;47.866;-4.222;2022-09-17T04:35:34;22.80;51.00
44427;DHT22;30133;47.866;-4.222;2022-09-17T04:38:00;22.80;51.00
44427;DHT22;30133;47.866;-4.222;2022-09-17T04:40:26;22.80;51.10
44427;DHT22;30133;47.866;-4.222;2022-09-17T04:42:57;22.80;51.10
44427;DHT22;30133;47.866;-4.222;2022-09-17T04:45:24;22.80;51.00
44427;DHT22;30133;47.866;-4.222;2022-09-17T04:47:51;22.80;51.00
44427;DHT22;30133;47.866;-4.222;2022-09-17T04:50:17;22.70;51.10
44427;DHT22;30133;47.866;-4.222;2022-09-17T04:52:45;22.70;51.00
44427;DHT22;30133;47.866;-4.222;2022-09-17T04:55:12;22.70;51.00
44427;DHT22;30133;47.866;-4.222;2022-09-17T04:57:45;22.80;51.00
44427;DHT22;30133;47.866;-4.222;2022-09-17T05:00:13;22.70;51.00
44427;DHT22;30133;47.866;-4.222;2022-09-17T05:02:46;22.70;51.00
44427;DHT22;30133;47.866;-4.222;2022-09-17T05:05:14;22.70;51.00
44427;DHT22;30133;47.866;-4.222;2022-09-17T05:07:42;22.70;51.00
44427;DHT22;30133;47.866;-4.222;2022-09-17T05:10:09;22.60;51.10
44427;DHT22;30133;47.866;-4.222;2022-09-17T05:12:36;22.70;51.10
44427;DHT22;30133;47.866;-4.222;2022-09-17T05:15:03;22.70;51.10
44427;DHT22;30133;47.866;-4.222;2022-09-17T05:17:30;22.70;51.10
44427;DHT22;30133;47.866;-4.222;2022-09-17T05:19:56;22.70;51.10
44427;DHT22;30133;47.866;-4.222;2022-09-17T05:22:22;22.60;51.00
44427;DHT22;30133;47.866;-4.222;2022-09-17T05:24:47;22.60;51.00
44427;DHT22;30133;47.866;-4.222;2022-09-17T05:27:13;22.70;51.00
44427;DHT22;30133;47.866;-4.222;2022-09-17T05:29:39;22.60;51.00
44427;DHT22;30133;47.866;-4.222;2022-09-17T05:32:06;22.70;51.00
44427;DHT22;30133;47.866;-4.222;2022-09-17T05:34:32;22.70;51.00
44427;DHT22;30133;47.866;-4.222;2022-09-17T05:36:58;22.70;51.00
44427;DHT22;30133;47.866;-4.222;2022-09-17T05:39:24;22.60;51.00
44427;DHT22;30133;47.866;-4.222;2022-09-17T05:41:53;22.60;51.00
44427;DHT22;30133;47.866;-4.222;2022-09-17T05:44:20;22.60;51.00
44427;DHT22;30133;47.866;-4.222;2022-09-17T05:46:46;22.60;51.00
44427;DHT22;30133;47.866;-4.222;2022-09-17T05:49:13;22.60;51.00
44427;DHT22;30133;47.866;-4.222;2022-09-17T05:51:40;22.60;51.00
44427;DHT22;30133;47.866;-4.222;2022-09-17T05:54:07;22.60;51.00
44427;DHT22;30133;47.866;-4.222;2022-09-17T05:56:33;22.60;51.00
44427;DHT22;30133;47.866;-4.222;2022-09-17T05:59:00;22.60;51.00
44427;DHT22;30133;47.866;-4.222;2022-09-17T06:01:26;22.60;51.00
44427;DHT22;30133;47.866;-4.222;2022-09-17T06:03:52;22.60;51.00
44427;DHT22;30133;47.866;-4.222;2022-09-17T06:06:18;22.60;51.00
44427;DHT22;30133;47.866;-4.222;2022-09-17T06:08:44;22.60;51.00
44427;DHT22;30133;47.866;-4.222;2022-09-17T06:11:10;22.60;51.00
44427;DHT22;30133;47.866;-4.222;2022-09-17T06:13:36;22.50;51.00
44427;DHT22;30133;47.866;-4.222;2022-09-17T06:16:03;22.50;51.00
44427;DHT22;30133;47.866;-4.222;2022-09-17T06:18:30;22.60;51.00
44427;DHT22;30133;47.866;-4.222;2022-09-17T06:20:59;22.50;50.90
44427;DHT22;30133;47.866;-4.222;2022-09-17T06:23:29;22.60;51.00
44427;DHT22;30133;47.866;-4.222;2022-09-17T06:26:00;22.60;51.00
44427;DHT22;30133;47.866;-4.222;2022-09-17T06:28:27;22.50;51.00
44427;DHT22;30133;47.866;-4.222;2022-09-17T06:30:54;22.50;51.00
44427;DHT22;30133;47.866;-4.222;2022-09-17T06:33:25;22.50;51.00
44427;DHT22;30133;47.866;-4.222;2022-09-17T06:36:08;22.50;51.00
44427;DHT22;30133;47.866;-4.222;2022-09-17T06:38:37;22.50;51.00
44427;DHT22;30133;47.866;-4.222;2022-09-17T06:41:04;22.50;51.00
44427;DHT22;30133;47.866;-4.222;2022-09-17T06:43:30;22.50;51.00
44427;DHT22;30133;47.866;-4.222;2022-09-17T06:46:01;22.50;51.00
44427;DHT22;30133;47.866;-4.222;2022-09-17T06:48:29;22.50;50.90
44427;DHT22;30133;47.866;-4.222;2022-09-17T06:50:59;22.50;51.00
44427;DHT22;30133;47.866;-4.222;2022-09-17T06:53:26;22.50;51.00
44427;DHT22;30133;47.866;-4.222;2022-09-17T06:55:56;22.50;51.00
44427;DHT22;30133;47.866;-4.222;2022-09-17T06:58:23;22.50;51.00
44427;DHT22;30133;47.866;-4.222;2022-09-17T07:00:50;22.50;51.00
44427;DHT22;30133;47.866;-4.222;2022-09-17T07:03:16;22.50;51.00
44427;DHT22;30133;47.866;-4.222;2022-09-17T07:05:43;22.50;51.00
44427;DHT22;30133;47.866;-4.222;2022-09-17T07:08:10;22.50;51.00
44427;DHT22;30133;47.866;-4.222;2022-09-17T07:10:37;22.50;51.20
44427;DHT22;30133;47.866;-4.222;2022-09-17T07:13:03;22.50;51.00
44427;DHT22;30133;47.866;-4.222;2022-09-17T07:15:32;22.50;51.00
44427;DHT22;30133;47.866;-4.222;2022-09-17T07:17:58;22.50;51.00
44427;DHT22;30133;47.866;-4.222;2022-09-17T07:20:24;22.50;50.90
44427;DHT22;30133;47.866;-4.222;2022-09-17T07:22:57;22.50;50.80
44427;DHT22;30133;47.866;-4.222;2022-09-17T07:25:24;22.50;51.30
44427;DHT22;30133;47.866;-4.222;2022-09-17T07:27:51;22.50;50.70
44427;DHT22;30133;47.866;-4.222;2022-09-17T07:30:18;22.50;50.60
44427;DHT22;30133;47.866;-4.222;2022-09-17T07:32:45;22.50;50.70
44427;DHT22;30133;47.866;-4.222;2022-09-17T07:35:12;22.50;50.70
44427;DHT22;30133;47.866;-4.222;2022-09-17T07:37:38;22.50;50.70
44427;DHT22;30133;47.866;-4.222;2022-09-17T07:40:05;22.50;50.70
44427;DHT22;30133;47.866;-4.222;2022-09-17T07:42:33;22.50;50.70
44427;DHT22;30133;47.866;-4.222;2022-09-17T07:44:59;22.60;50.70
44427;DHT22;30133;47.866;-4.222;2022-09-17T07:47:25;22.60;50.60
44427;DHT22;30133;47.866;-4.222;2022-09-17T07:49:51;22.60;50.60
44427;DHT22;30133;47.866;-4.222;2022-09-17T07:52:17;22.60;50.60
44427;DHT22;30133;47.866;-4.222;2022-09-17T07:54:44;22.70;50.80
44427;DHT22;30133;47.866;-4.222;2022-09-17T07:57:10;22.70;50.80
44427;DHT22;30133;47.866;-4.222;2022-09-17T07:59:35;22.70;50.70
44427;DHT22;30133;47.866;-4.222;2022-09-17T08:02:02;22.70;50.70
44427;DHT22;30133;47.866;-4.222;2022-09-17T08:04:28;22.80;50.70
44427;DHT22;30133;47.866;-4.222;2022-09-17T08:06:53;22.80;50.70
44427;DHT22;30133;47.866;-4.222;2022-09-17T08:09:19;22.80;50.80
44427;DHT22;30133;47.866;-4.222;2022-09-17T08:11:47;22.80;50.90
44427;DHT22;30133;47.866;-4.222;2022-09-17T08:14:14;22.80;51.10
44427;DHT22;30133;47.866;-4.222;2022-09-17T08:16:40;22.80;51.30
44427;DHT22;30133;47.866;-4.222;2022-09-17T08:19:07;22.80;51.20
44427;DHT22;30133;47.866;-4.222;2022-09-17T08:21:35;22.90;51.10
44427;DHT22;30133;47.866;-4.222;2022-09-17T08:24:02;22.90;50.90
44427;DHT22;30133;47.866;-4.222;2022-09-17T08:26:28;22.90;50.90
44427;DHT22;30133;47.866;-4.222;2022-09-17T08:28:54;23.00;50.70
44427;DHT22;30133;47.866;-4.222;2022-09-17T08:31:23;23.00;50.70
44427;DHT22;30133;47.866;-4.222;2022-09-17T08:33:51;23.00;50.50
44427;DHT22;30133;47.866;-4.222;2022-09-17T08:36:18;23.00;50.50
44427;DHT22;30133;47.866;-4.222;2022-09-17T08:38:46;23.10;50.30
44427;DHT22;30133;47.866;-4.222;2022-09-17T08:44:06;23.10;50.40
44427;DHT22;30133;47.866;-4.222;2022-09-17T08:47:01;23.10;50.30
44427;DHT22;30133;47.866;-4.222;2022-09-17T08:49:34;23.10;50.30
44427;DHT22;30133;47.866;-4.222;2022-09-17T08:55:13;23.20;50.80
44427;DHT22;30133;47.866;-4.222;2022-09-17T09:06:54;23.30;50.30
44427;DHT22;30133;47.866;-4.222;2022-09-17T09:09:29;23.30;50.30
44427;DHT22;30133;47.866;-4.222;2022-09-17T09:12:26;23.30;50.30
44427;DHT22;30133;47.866;-4.222;2022-09-17T09:15:00;23.30;50.20
44427;DHT22;30133;47.866;-4.222;2022-09-17T09:17:37;23.30;50.10
44427;DHT22;30133;47.866;-4.222;2022-09-17T09:20:14;23.40;50.30
44427;DHT22;30133;47.866;-4.222;2022-09-17T09:22:50;23.40;50.20
44427;DHT22;30133;47.866;-4.222;2022-09-17T09:25:29;23.40;50.10
44427;DHT22;30133;47.866;-4.222;2022-09-17T09:36:06;23.50;49.70
44427;DHT22;30133;47.866;-4.222;2022-09-17T09:38:42;23.50;50.20
44427;DHT22;30133;47.866;-4.222;2022-09-17T09:44:09;23.50;50.10
44427;DHT22;30133;47.866;-4.222;2022-09-17T09:46:39;23.50;50.10
44427;DHT22;30133;47.866;-4.222;2022-09-17T10:01:02;23.50;50.10
44427;DHT22;30133;47.866;-4.222;2022-09-17T10:03:35;23.50;50.20
44427;DHT22;30133;47.866;-4.222;2022-09-17T10:06:07;23.50;50.10
44427;DHT22;30133;47.866;-4.222;2022-09-17T10:08:40;23.50;50.00
44427;DHT22;30133;47.866;-4.222;2022-09-17T10:13:36;23.60;50.00
44427;DHT22;30133;47.866;-4.222;2022-09-17T10:16:22;23.60;50.00
44427;DHT22;30133;47.866;-4.222;2022-09-17T10:21:38;23.70;50.10
44427;DHT22;30133;47.866;-4.222;2022-09-17T10:24:26;23.70;50.10
44427;DHT22;30133;47.866;-4.222;2022-09-17T10:27:12;23.70;50.60
44427;DHT22;30133;47.866;-4.222;2022-09-17T10:29:52;23.70;50.10
44427;DHT22;30133;47.866;-4.222;2022-09-17T10:32:26;23.70;50.10
44427;DHT22;30133;47.866;-4.222;2022-09-17T10:40:30;23.70;50.20
44427;DHT22;30133;47.866;-4.222;2022-09-17T10:45:53;23.70;50.20
44427;DHT22;30133;47.866;-4.222;2022-09-17T10:48:21;23.70;50.20
44427;DHT22;30133;47.866;-4.222;2022-09-17T10:50:52;23.70;50.20
44427;DHT22;30133;47.866;-4.222;2022-09-17T10:53:20;23.70;50.20
44427;DHT22;30133;47.866;-4.222;2022-09-17T10:58:46;23.70;50.20
44427;DHT22;30133;47.866;-4.222;2022-09-17T11:02:03;23.70;50.20
44427;DHT22;30133;47.866;-4.222;2022-09-17T11:07:39;23.70;50.30
44427;DHT22;30133;47.866;-4.222;2022-09-17T11:10:33;23.80;50.30
44427;DHT22;30133;47.866;-4.222;2022-09-17T11:13:33;23.80;50.30
44427;DHT22;30133;47.866;-4.222;2022-09-17T11:19:26;23.80;50.30
44427;DHT22;30133;47.866;-4.222;2022-09-17T11:39:42;23.70;50.40
44427;DHT22;30133;47.866;-4.222;2022-09-17T11:42:30;23.70;50.40
44427;DHT22;30133;47.866;-4.222;2022-09-17T11:45:18;23.80;50.50
44427;DHT22;30133;47.866;-4.222;2022-09-17T11:48:06;23.70;50.40
44427;DHT22;30133;47.866;-4.222;2022-09-17T11:50:57;23.70;50.40
44427;DHT22;30133;47.866;-4.222;2022-09-17T11:53:38;23.70;50.40
44427;DHT22;30133;47.866;-4.222;2022-09-17T12:01:27;23.70;50.40
44427;DHT22;30133;47.866;-4.222;2022-09-17T12:07:33;23.70;50.40
44427;DHT22;30133;47.866;-4.222;2022-09-17T12:10:31;23.70;50.40
44427;DHT22;30133;47.866;-4.222;2022-09-17T12:13:15;23.70;50.40
44427;DHT22;30133;47.866;-4.222;2022-09-17T12:15:46;23.70;50.50
44427;DHT22;30133;47.866;-4.222;2022-09-17T12:18:20;23.70;50.50
44427;DHT22;30133;47.866;-4.222;2022-09-17T12:21:08;23.70;50.50
44427;DHT22;30133;47.866;-4.222;2022-09-17T12:29:43;23.70;50.50
44427;DHT22;30133;47.866;-4.222;2022-09-17T12:41:51;23.70;50.50
44427;DHT22;30133;47.866;-4.222;2022-09-17T12:51:04;23.70;50.60
44427;DHT22;30133;47.866;-4.222;2022-09-17T12:53:41;23.70;51.20
44427;DHT22;30133;47.866;-4.222;2022-09-17T13:00:12;23.70;50.60
44427;DHT22;30133;47.866;-4.222;2022-09-17T13:09:23;23.70;50.60
44427;DHT22;30133;47.866;-4.222;2022-09-17T13:16:12;23.70;50.20
44427;DHT22;30133;47.866;-4.222;2022-09-17T13:19:09;23.70;50.20
44427;DHT22;30133;47.866;-4.222;2022-09-17T13:21:53;23.80;50.10
44427;DHT22;30133;47.866;-4.222;2022-09-17T13:24:28;23.80;50.00
44427;DHT22;30133;47.866;-4.222;2022-09-17T13:26:57;23.80;50.10
44427;DHT22;30133;47.866;-4.222;2022-09-17T13:40:27;23.90;50.00
44427;DHT22;30133;47.866;-4.222;2022-09-17T13:45:27;23.90;49.70
44427;DHT22;30133;47.866;-4.222;2022-09-17T13:48:10;23.90;49.80
44427;DHT22;30133;47.866;-4.222;2022-09-17T13:50:42;23.90;49.80
44427;DHT22;30133;47.866;-4.222;2022-09-17T13:55:48;24.00;49.60
44427;DHT22;30133;47.866;-4.222;2022-09-17T14:01:06;24.00;49.40
44427;DHT22;30133;47.866;-4.222;2022-09-17T14:27:21;24.10;49.50
44427;DHT22;30133;47.866;-4.222;2022-09-17T14:35:40;24.10;49.70
44427;DHT22;30133;47.866;-4.222;2022-09-17T14:40:43;24.10;49.70
44427;DHT22;30133;47.866;-4.222;2022-09-17T14:43:23;24.10;49.80
44427;DHT22;30133;47.866;-4.222;2022-09-17T14:46:28;24.10;49.80
44427;DHT22;30133;47.866;-4.222;2022-09-17T14:49:41;24.10;49.70
44427;DHT22;30133;47.866;-4.222;2022-09-17T14:52:25;24.20;49.80
44427;DHT22;30133;47.866;-4.222;2022-09-17T14:55:18;24.20;49.80
44427;DHT22;30133;47.866;-4.222;2022-09-17T14:57:56;24.20;49.80
44427;DHT22;30133;47.866;-4.222;2022-09-17T15:00:37;24.20;49.90
44427;DHT22;30133;47.866;-4.222;2022-09-17T15:03:03;24.20;49.80
44427;DHT22;30133;47.866;-4.222;2022-09-17T15:05:34;24.20;49.80
44427;DHT22;30133;47.866;-4.222;2022-09-17T15:13:25;24.30;50.50
44427;DHT22;30133;47.866;-4.222;2022-09-17T15:15:57;24.30;49.90
44427;DHT22;30133;47.866;-4.222;2022-09-17T15:18:35;24.30;49.90
44427;DHT22;30133;47.866;-4.222;2022-09-17T15:21:09;24.40;50.00
44427;DHT22;30133;47.866;-4.222;2022-09-17T15:23:42;24.30;49.90
44427;DHT22;30133;47.866;-4.222;2022-09-17T15:26:11;24.40;49.90
44427;DHT22;30133;47.866;-4.222;2022-09-17T15:28:43;24.40;50.00
44427;DHT22;30133;47.866;-4.222;2022-09-17T15:31:18;24.40;50.00
44427;DHT22;30133;47.866;-4.222;2022-09-17T15:33:45;24.50;50.10
44427;DHT22;30133;47.866;-4.222;2022-09-17T15:38:46;24.60;50.10
44427;DHT22;30133;47.866;-4.222;2022-09-17T15:44:06;24.60;49.40
44427;DHT22;30133;47.866;-4.222;2022-09-17T15:46:39;24.60;49.50
44427;DHT22;30133;47.866;-4.222;2022-09-17T15:49:34;24.60;49.60
44427;DHT22;30133;47.866;-4.222;2022-09-17T15:52:26;24.70;49.60
44427;DHT22;30133;47.866;-4.222;2022-09-17T15:54:57;24.60;49.80
44427;DHT22;30133;47.866;-4.222;2022-09-17T15:57:25;24.70;49.60
44427;DHT22;30133;47.866;-4.222;2022-09-17T15:59:52;24.70;49.50
44427;DHT22;30133;47.866;-4.222;2022-09-17T16:02:30;24.70;49.60
44427;DHT22;30133;47.866;-4.222;2022-09-17T16:07:48;24.90;49.60
44427;DHT22;30133;47.866;-4.222;2022-09-17T16:10:14;24.80;49.70
44427;DHT22;30133;47.866;-4.222;2022-09-17T16:12:40;24.90;49.60
44427;DHT22;30133;47.866;-4.222;2022-09-17T16:15:07;24.90;49.40
44427;DHT22;30133;47.866;-4.222;2022-09-17T16:17:45;24.90;49.40
44427;DHT22;30133;47.866;-4.222;2022-09-17T16:20:16;24.90;50.00
44427;DHT22;30133;47.866;-4.222;2022-09-17T16:22:43;24.80;49.40
44427;DHT22;30133;47.866;-4.222;2022-09-17T16:25:13;24.80;49.30
44427;DHT22;30133;47.866;-4.222;2022-09-17T16:30:22;24.80;49.30
44427;DHT22;30133;47.866;-4.222;2022-09-17T16:32:50;24.70;49.20
44427;DHT22;30133;47.866;-4.222;2022-09-17T16:35:18;24.70;49.30
44427;DHT22;30133;47.866;-4.222;2022-09-17T16:37:51;24.70;49.30
44427;DHT22;30133;47.866;-4.222;2022-09-17T16:40:19;24.70;49.40
44427;DHT22;30133;47.866;-4.222;2022-09-17T16:42:46;24.70;49.40
44427;DHT22;30133;47.866;-4.222;2022-09-17T16:45:12;24.70;49.50
44427;DHT22;30133;47.866;-4.222;2022-09-17T16:47:41;24.60;49.50
44427;DHT22;30133;47.866;-4.222;2022-09-17T16:50:12;24.60;49.50
44427;DHT22;30133;47.866;-4.222;2022-09-17T16:52:41;24.60;49.60
44427;DHT22;30133;47.866;-4.222;2022-09-17T16:55:08;24.60;49.60
44427;DHT22;30133;47.866;-4.222;2022-09-17T16:57:34;24.60;49.70
44427;DHT22;30133;47.866;-4.222;2022-09-17T17:00:00;24.60;49.70
44427;DHT22;30133;47.866;-4.222;2022-09-17T17:02:26;24.60;49.80
44427;DHT22;30133;47.866;-4.222;2022-09-17T17:04:52;24.50;49.70
44427;DHT22;30133;47.866;-4.222;2022-09-17T17:07:18;24.50;49.80
44427;DHT22;30133;47.866;-4.222;2022-09-17T17:09:46;24.50;49.90
44427;DHT22;30133;47.866;-4.222;2022-09-17T17:12:12;24.50;49.90
44427;DHT22;30133;47.866;-4.222;2022-09-17T17:14:38;24.50;50.00
44427;DHT22;30133;47.866;-4.222;2022-09-17T17:17:04;24.40;50.00
44427;DHT22;30133;47.866;-4.222;2022-09-17T17:19:30;24.50;50.10
44427;DHT22;30133;47.866;-4.222;2022-09-17T17:21:58;24.40;50.10
44427;DHT22;30133;47.866;-4.222;2022-09-17T17:24:24;24.40;50.20
44427;DHT22;30133;47.866;-4.222;2022-09-17T17:26:50;24.40;50.20
44427;DHT22;30133;47.866;-4.222;2022-09-17T17:29:16;24.40;50.20
44427;DHT22;30133;47.866;-4.222;2022-09-17T17:31:41;24.40;50.30
44427;DHT22;30133;47.866;-4.222;2022-09-17T17:34:07;24.30;50.30
44427;DHT22;30133;47.866;-4.222;2022-09-17T17:36:33;24.40;50.40
44427;DHT22;30133;47.866;-4.222;2022-09-17T17:39:00;24.30;50.40
44427;DHT22;30133;47.866;-4.222;2022-09-17T17:41:26;24.30;50.40
44427;DHT22;30133;47.866;-4.222;2022-09-17T17:43:53;24.30;50.50
44427;DHT22;30133;47.866;-4.222;2022-09-17T17:46:20;24.30;50.50
44427;DHT22;30133;47.866;-4.222;2022-09-17T17:48:47;24.30;50.60
44427;DHT22;30133;47.866;-4.222;2022-09-17T17:51:14;24.30;50.60
44427;DHT22;30133;47.866;-4.222;2022-09-17T17:53:44;24.30;50.70
44427;DHT22;30133;47.866;-4.222;2022-09-17T17:56:11;24.20;50.70
44427;DHT22;30133;47.866;-4.222;2022-09-17T17:58:37;24.20;50.70
44427;DHT22;30133;47.866;-4.222;2022-09-17T18:01:18;24.20;50.70
44427;DHT22;30133;47.866;-4.222;2022-09-17T18:03:45;24.20;50.70
44427;DHT22;30133;47.866;-4.222;2022-09-17T18:06:12;24.20;50.80
44427;DHT22;30133;47.866;-4.222;2022-09-17T18:08:40;24.10;50.80
44427;DHT22;30133;47.866;-4.222;2022-09-17T18:11:08;24.10;50.90
44427;DHT22;30133;47.866;-4.222;2022-09-17T18:13:37;24.10;50.90
44427;DHT22;30133;47.866;-4.222;2022-09-17T18:16:04;24.10;51.00
44427;DHT22;30133;47.866;-4.222;2022-09-17T18:18:40;24.10;51.00
44427;DHT22;30133;47.866;-4.222;2022-09-17T18:21:10;24.10;51.00
44427;DHT22;30133;47.866;-4.222;2022-09-17T18:23:42;24.10;51.10
44427;DHT22;30133;47.866;-4.222;2022-09-17T18:26:17;24.00;51.00
44427;DHT22;30133;47.866;-4.222;2022-09-17T18:28:45;24.00;51.00
44427;DHT22;30133;47.866;-4.222;2022-09-17T18:34:04;24.00;51.10
44427;DHT22;30133;47.866;-4.222;2022-09-17T18:36:33;24.00;51.10
44427;DHT22;30133;47.866;-4.222;2022-09-17T18:39:03;24.00;51.20
44427;DHT22;30133;47.866;-4.222;2022-09-17T18:41:34;24.00;51.20
44427;DHT22;30133;47.866;-4.222;2022-09-17T18:44:09;24.00;51.20
44427;DHT22;30133;47.866;-4.222;2022-09-17T18:46:35;23.90;51.20
44427;DHT22;30133;47.866;-4.222;2022-09-17T18:49:02;23.90;51.20
44427;DHT22;30133;47.866;-4.222;2022-09-17T18:51:29;23.90;51.20
44427;DHT22;30133;47.866;-4.222;2022-09-17T18:53:57;23.90;51.30
44427;DHT22;30133;47.866;-4.222;2022-09-17T18:56:25;23.90;51.30
44427;DHT22;30133;47.866;-4.222;2022-09-17T18:58:55;23.90;51.30
44427;DHT22;30133;47.866;-4.222;2022-09-17T19:01:25;23.90;51.30
44427;DHT22;30133;47.866;-4.222;2022-09-17T19:03:53;23.80;51.30
44427;DHT22;30133;47.866;-4.222;2022-09-17T19:06:19;23.90;51.40
44427;DHT22;30133;47.866;-4.222;2022-09-17T19:08:46;23.80;51.40
44427;DHT22;30133;47.866;-4.222;2022-09-17T19:11:12;23.80;51.40
44427;DHT22;30133;47.866;-4.222;2022-09-17T19:13:44;23.80;51.40
44427;DHT22;30133;47.866;-4.222;2022-09-17T19:16:14;23.80;51.40
44427;DHT22;30133;47.866;-4.222;2022-09-17T19:18:40;23.80;51.40
44427;DHT22;30133;47.866;-4.222;2022-09-17T19:21:11;23.80;51.50
44427;DHT22;30133;47.866;-4.222;2022-09-17T19:23:46;23.80;51.40
44427;DHT22;30133;47.866;-4.222;2022-09-17T19:26:16;23.70;51.40
44427;DHT22;30133;47.866;-4.222;2022-09-17T19:28:42;23.70;51.40
44427;DHT22;30133;47.866;-4.222;2022-09-17T19:31:11;23.70;51.50
44427;DHT22;30133;47.866;-4.222;2022-09-17T19:33:39;23.70;51.60
44427;DHT22;30133;47.866;-4.222;2022-09-17T19:36:08;23.70;51.60
44427;DHT22;30133;47.866;-4.222;2022-09-17T19:38:36;23.70;52.20
44427;DHT22;30133;47.866;-4.222;2022-09-17T19:41:06;23.60;51.60
44427;DHT22;30133;47.866;-4.222;2022-09-17T19:43:37;23.60;51.60